Time;durP1;ratioP1;P1;durP2;ratioP2;P2;SDS_P1;SDS_P2;PMS_P1;PMS_P2;Temp;Humidity;BMP_temperature;BMP_pressure;BME280_temperature;BME280_humidity;BME280_pressure;Samples;Min_cycle;Max_cycle;Signal;HPM_P1;HPM_P2
2023/05/22 00:00:54;;;;;;;14.18;10.93;;;16.30;99.90;;;;;;5049782;28;20217;-79
2023/05/22 00:03:23;;;;;;;16.77;10.90;;;16.50;99.90;;;;;;5041013;28;20227;-83
2023/05/22 00:05:52;;;;;;;14.90;10.70;;;16.50;99.90;;;;;;5048587;28;20203;-80
2023/05/22 00:08:18;;;;;;;13.15;9.75;;;16.50;99.90;;;;;;5045992;28;20252;-78
2023/05/22 00:10:45;;;;;;;15.93;10.73;;;16.40;99.90;;;;;;5031588;28;20294;-78
2023/05/22 00:13:13;;;;;;;14.77;10.43;;;16.40;99.90;;;;;;5031239;28;20219;-80
2023/05/22 00:15:40;;;;;;;15.13;10.77;;;16.30;99.90;;;;;;5042536;28;20202;-80
2023/05/22 00:18:08;;;;;;;16.85;11.48;;;16.10;99.90;;;;;;5031192;28;20686;-78
2023/05/22 00:20:37;;;;;;;15.23;10.77;;;16.20;99.90;;;;;;5031284;28;20207;-78
2023/05/22 00:23:04;;;;;;;16.70;10.82;;;16.00;99.90;;;;;;5031179;28;20227;-78
2023/05/22 00:25:31;;;;;;;15.55;10.95;;;15.90;99.90;;;;;;5031118;28;20263;-80
2023/05/22 00:27:57;;;;;;;14.75;10.73;;;16.00;99.90;;;;;;5031137;28;20573;-80
2023/05/22 00:30:26;;;;;;;17.35;10.40;;;16.00;99.90;;;;;;5045411;28;20242;-81
2023/05/22 00:32:52;;;;;;;16.98;11.70;;;16.10;99.90;;;;;;5040338;28;20202;-82
2023/05/22 00:35:19;;;;;;;15.25;10.73;;;16.10;99.90;;;;;;5038605;28;20225;-80
2023/05/22 00:37:46;;;;;;;14.98;10.57;;;16.20;99.90;;;;;;5029304;28;20814;-78
2023/05/22 00:40:14;;;;;;;16.02;11.40;;;16.30;99.90;;;;;;5030574;28;20222;-80
2023/05/22 00:42:41;;;;;;;18.05;11.80;;;16.40;99.90;;;;;;5033103;28;20198;-81
2023/05/22 00:45:11;;;;;;;16.73;11.05;;;16.10;99.90;;;;;;5048811;28;20567;-79
2023/05/22 00:47:40;;;;;;;16.45;11.40;;;16.00;99.90;;;;;;5048705;28;20217;-79
2023/05/22 00:50:08;;;;;;;16.45;11.20;;;15.90;99.90;;;;;;5043570;28;20663;-78
2023/05/22 00:52:37;;;;;;;15.75;11.00;;;15.90;99.90;;;;;;5036553;28;20195;-82
2023/05/22 00:55:05;;;;;;;16.42;11.90;;;15.70;99.90;;;;;;5050711;28;20679;-78
2023/05/22 00:57:33;;;;;;;15.73;11.02;;;15.40;99.90;;;;;;5050139;28;20207;-81
2023/05/22 01:00:03;;;;;;;16.70;10.65;;;15.30;99.90;;;;;;5046241;28;20652;-79
2023/05/22 01:02:31;;;;;;;13.95;10.38;;;15.40;99.90;;;;;;5049280;28;20211;-78
2023/05/22 01:04:59;;;;;;;14.10;10.73;;;15.60;99.90;;;;;;5050279;28;20218;-78
2023/05/22 01:07:26;;;;;;;15.93;11.32;;;15.30;99.90;;;;;;5084157;27;20192;-79
2023/05/22 01:09:54;;;;;;;14.48;10.40;;;15.20;99.90;;;;;;5113707;27;20561;-78
2023/05/22 01:12:30;;;;;;;17.50;11.52;;;15.40;99.90;;;;;;5049504;28;20234;-79
2023/05/22 01:15:07;;;;;;;15.43;10.98;;;15.40;99.90;;;;;;5033215;28;20227;-79
2023/05/22 01:17:45;;;;;;;15.98;11.07;;;15.40;99.90;;;;;;5038170;28;20199;-80
2023/05/22 01:20:21;;;;;;;16.83;11.43;;;15.80;99.90;;;;;;5050047;28;20845;-79
2023/05/22 01:23:10;;;;;;;19.65;11.27;;;15.90;99.90;;;;;;5058234;27;20236;-78
2023/05/22 01:26:01;;;;;;;15.15;10.02;;;16.10;99.90;;;;;;5043284;28;20206;-80
2023/05/22 01:28:50;;;;;;;18.77;11.55;;;16.10;99.90;;;;;;5027455;28;20210;-78
2023/05/22 01:31:23;;;;;;;16.20;11.02;;;16.10;99.90;;;;;;5065470;27;20235;-81
2023/05/22 01:33:54;;;;;;;14.60;10.52;;;16.20;99.90;;;;;;5040628;28;20223;-80
2023/05/22 01:36:22;;;;;;;14.07;10.05;;;16.20;99.90;;;;;;5036262;27;20697;-83
2023/05/22 01:38:50;;;;;;;18.70;10.82;;;16.30;99.90;;;;;;5050368;27;20195;-79
2023/05/22 01:41:17;;;;;;;17.17;11.30;;;16.40;99.90;;;;;;5047668;28;20195;-79
2023/05/22 01:43:45;;;;;;;14.93;10.35;;;16.50;99.90;;;;;;5041941;28;20215;-81
2023/05/22 01:46:12;;;;;;;13.98;9.82;;;16.60;99.90;;;;;;5045062;28;20493;-81
2023/05/22 01:48:40;;;;;;;17.85;10.77;;;16.60;99.90;;;;;;5040617;28;20219;-78
2023/05/22 01:51:13;;;;;;;15.00;10.48;;;16.60;99.90;;;;;;5032297;28;20561;-77
2023/05/22 01:53:47;;;;;;;16.25;10.52;;;16.60;99.90;;;;;;5035229;28;20215;-79
2023/05/22 01:56:20;;;;;;;14.60;9.57;;;16.50;99.90;;;;;;5044422;28;20196;-79
2023/05/22 01:58:52;;;;;;;16.27;10.73;;;16.20;99.90;;;;;;5033276;28;20301;-79
2023/05/22 02:01:21;;;;;;;17.27;11.30;;;16.10;99.90;;;;;;5033319;28;20230;-79
2023/05/22 02:03:55;;;;;;;16.92;11.15;;;15.90;99.90;;;;;;5033143;28;20224;-80
2023/05/22 02:06:25;;;;;;;15.88;11.35;;;15.80;99.90;;;;;;5034018;28;20659;-78
2023/05/22 02:08:53;;;;;;;17.52;11.05;;;15.60;99.90;;;;;;5033844;28;20228;-81
2023/05/22 02:11:21;;;;;;;14.25;10.63;;;15.50;99.90;;;;;;5032285;28;20298;-79
2023/05/22 02:13:49;;;;;;;14.77;11.07;;;15.40;99.90;;;;;;5054364;27;20223;-79
2023/05/22 02:16:16;;;;;;;15.55;11.48;;;15.10;99.90;;;;;;5157204;27;20203;-80
2023/05/22 02:18:44;;;;;;;15.80;11.63;;;14.90;99.90;;;;;;5156713;27;20191;-80
2023/05/22 02:21:12;;;;;;;16.25;12.20;;;14.70;99.90;;;;;;5157866;27;20195;-80
2023/05/22 02:23:39;;;;;;;16.92;11.88;;;14.60;99.90;;;;;;5064748;27;20223;-80
2023/05/22 02:26:06;;;;;;;17.50;12.52;;;14.50;99.90;;;;;;5052269;28;20195;-78
2023/05/22 02:28:33;;;;;;;16.52;11.95;;;14.10;99.90;;;;;;5033754;28;20275;-78
2023/05/22 02:31:01;;;;;;;21.85;12.43;;;14.00;99.90;;;;;;5029575;28;20204;-78
2023/05/22 02:33:28;;;;;;;18.20;11.73;;;13.90;99.90;;;;;;5045333;28;20227;-79
2023/05/22 02:35:55;;;;;;;17.77;12.47;;;14.00;99.90;;;;;;5047519;28;20225;-81
2023/05/22 02:38:23;;;;;;;19.93;13.30;;;13.80;99.90;;;;;;5031819;28;20336;-79
2023/05/22 02:40:53;;;;;;;18.60;13.17;;;13.80;99.90;;;;;;5030436;28;20719;-77
2023/05/22 02:43:19;;;;;;;19.53;13.00;;;14.20;99.90;;;;;;5030074;28;20224;-80
2023/05/22 02:45:46;;;;;;;22.60;13.63;;;14.30;99.90;;;;;;5030365;28;20206;-79
2023/05/22 02:48:13;;;;;;;18.57;13.80;;;14.40;99.90;;;;;;5036297;28;20239;-78
2023/05/22 02:50:40;;;;;;;18.87;13.00;;;14.50;99.90;;;;;;5034172;28;20204;-81
2023/05/22 02:53:07;;;;;;;19.17;13.20;;;14.50;99.90;;;;;;5030422;28;20294;-80
2023/05/22 02:55:35;;;;;;;22.83;13.27;;;14.30;99.90;;;;;;5042841;28;20222;-78
2023/05/22 02:58:02;;;;;;;18.60;12.67;;;14.30;99.90;;;;;;5032334;28;20267;-79
2023/05/22 03:00:29;;;;;;;17.17;12.50;;;14.40;99.90;;;;;;5050953;28;20263;-80
2023/05/22 03:02:55;;;;;;;16.93;11.60;;;14.50;99.90;;;;;;5051743;28;20670;-78
2023/05/22 03:05:22;;;;;;;18.67;12.47;;;14.60;99.90;;;;;;5034410;28;20473;-79
2023/05/22 03:07:49;;;;;;;19.57;11.80;;;14.60;99.90;;;;;;5032059;28;20200;-80
2023/05/22 03:10:16;;;;;;;19.20;12.07;;;14.60;99.90;;;;;;5034476;28;20210;-79
2023/05/22 03:12:44;;;;;;;17.57;12.63;;;14.60;99.90;;;;;;5030705;28;20212;-78
2023/05/22 03:15:11;;;;;;;17.10;12.07;;;14.60;99.90;;;;;;5030650;28;20220;-77
2023/05/22 03:17:38;;;;;;;18.33;12.15;;;14.60;99.90;;;;;;5031024;28;20219;-79
2023/05/22 03:20:07;;;;;;;18.45;13.35;;;14.70;99.90;;;;;;5031596;28;20214;-79
2023/05/22 03:22:34;;;;;;;16.52;12.25;;;14.80;99.90;;;;;;5044666;28;20207;-78
2023/05/22 03:25:01;;;;;;;17.17;11.53;;;14.80;99.90;;;;;;5050387;28;20585;-78
2023/05/22 03:27:28;;;;;;;15.38;11.15;;;14.80;99.90;;;;;;5050678;28;20210;-78
2023/05/22 03:29:56;;;;;;;16.98;11.98;;;14.70;99.90;;;;;;5049781;28;20304;-78
2023/05/22 03:32:23;;;;;;;15.82;12.05;;;14.60;99.90;;;;;;5048794;28;20237;-77
2023/05/22 03:34:50;;;;;;;15.02;11.25;;;14.60;99.90;;;;;;5050951;28;20229;-82
2023/05/22 03:37:16;;;;;;;16.65;11.82;;;14.30;99.90;;;;;;5052095;28;20219;-81
2023/05/22 03:39:43;;;;;;;17.85;11.25;;;14.30;99.90;;;;;;5051400;28;20217;-79
2023/05/22 03:42:12;;;;;;;17.85;11.00;;;14.40;99.90;;;;;;5051075;28;20202;-81
2023/05/22 03:44:38;;;;;;;17.35;11.52;;;14.50;99.90;;;;;;5050614;28;20286;-79
2023/05/22 03:47:07;;;;;;;17.20;10.75;;;14.70;99.90;;;;;;5051006;28;20203;-79
2023/05/22 03:49:33;;;;;;;16.30;11.32;;;14.70;99.90;;;;;;5051008;28;20203;-80
2023/05/22 03:52:00;;;;;;;14.23;11.02;;;14.60;99.90;;;;;;5051176;28;20574;-83
2023/05/22 03:54:27;;;;;;;17.52;11.23;;;14.60;99.90;;;;;;5050842;28;20223;-78
2023/05/22 03:56:54;;;;;;;17.55;11.00;;;14.60;99.90;;;;;;5051068;28;20205;-79
2023/05/22 03:59:21;;;;;;;15.25;10.27;;;14.60;99.90;;;;;;5051789;28;20678;-81
2023/05/22 04:01:47;;;;;;;15.52;11.63;;;14.60;99.90;;;;;;5051148;28;20290;-79
2023/05/22 04:04:16;;;;;;;17.35;10.48;;;14.60;99.90;;;;;;5051482;28;20317;-79
2023/05/22 04:06:43;;;;;;;15.52;10.73;;;14.60;99.90;;;;;;5051230;28;20211;-83
2023/05/22 04:09:11;;;;;;;15.88;11.45;;;14.80;99.90;;;;;;5050957;28;20223;-78
2023/05/22 04:11:39;;;;;;;13.77;10.63;;;14.70;99.90;;;;;;5050460;28;20207;-79
2023/05/22 04:14:06;;;;;;;17.85;11.02;;;14.90;99.90;;;;;;5051048;28;20227;-79
2023/05/22 04:16:33;;;;;;;17.38;11.00;;;15.00;99.90;;;;;;5051980;28;20233;-79
2023/05/22 04:19:01;;;;;;;13.57;10.38;;;15.10;99.90;;;;;;5051654;28;20203;-81
2023/05/22 04:21:32;;;;;;;16.77;10.35;;;15.10;99.90;;;;;;5051372;28;20203;-78
2023/05/22 04:24:00;;;;;;;12.95;10.52;;;15.10;99.90;;;;;;5071065;27;20571;-79
2023/05/22 04:26:28;;;;;;;15.43;10.95;;;15.10;99.90;;;;;;5083605;27;20219;-80
2023/05/22 04:28:55;;;;;;;14.95;9.90;;;15.20;99.90;;;;;;5057349;27;20199;-79
2023/05/22 04:31:22;;;;;;;16.30;10.55;;;15.10;99.90;;;;;;5088977;27;20470;-79
2023/05/22 04:33:50;;;;;;;17.48;11.60;;;15.20;99.90;;;;;;5049404;27;20223;-81
2023/05/22 04:36:21;;;;;;;15.48;11.48;;;15.30;99.90;;;;;;5075676;27;20216;-80
2023/05/22 04:38:49;;;;;;;14.48;11.10;;;15.30;99.90;;;;;;5063009;27;20226;-80
2023/05/22 04:41:16;;;;;;;14.77;11.02;;;15.30;99.90;;;;;;5038675;27;20204;-80
2023/05/22 04:43:43;;;;;;;13.13;9.88;;;15.50;99.90;;;;;;5030566;28;20727;-78
2023/05/22 04:46:10;;;;;;;14.63;10.68;;;15.40;99.90;;;;;;5067995;27;20200;-80
2023/05/22 04:48:37;;;;;;;14.23;10.32;;;15.50;99.90;;;;;;5078971;27;20203;-83
2023/05/22 04:51:05;;;;;;;15.07;11.05;;;15.50;99.90;;;;;;5091162;27;20212;-80
2023/05/22 04:53:32;;;;;;;16.45;10.52;;;15.40;99.90;;;;;;5030830;28;20236;-79
2023/05/22 04:56:00;;;;;;;18.08;11.60;;;15.40;99.90;;;;;;5031109;28;20881;-78
2023/05/22 04:58:27;;;;;;;18.58;10.32;;;15.40;99.90;;;;;;5030310;28;20241;-81
2023/05/22 05:00:56;;;;;;;19.63;11.85;;;15.50;99.90;;;;;;5030290;28;20219;-78
2023/05/22 05:03:24;;;;;;;24.60;11.05;;;15.60;99.90;;;;;;5062239;27;20223;-78
2023/05/22 05:05:51;;;;;;;21.23;10.77;;;15.60;99.90;;;;;;5092195;27;20670;-78
2023/05/22 05:08:18;;;;;;;22.90;11.52;;;15.60;99.90;;;;;;5058644;27;20207;-81
2023/05/22 05:10:45;;;;;;;24.30;11.70;;;15.60;99.90;;;;;;5079324;27;20217;-79
2023/05/22 05:13:13;;;;;;;19.20;10.95;;;15.60;99.90;;;;;;5054125;27;20233;-79
2023/05/22 05:15:39;;;;;;;16.10;11.38;;;15.60;99.90;;;;;;5040283;28;20675;-81
2023/05/22 05:18:06;;;;;;;15.07;11.23;;;15.60;99.90;;;;;;5041305;27;20205;-78
2023/05/22 05:20:33;;;;;;;13.23;10.55;;;15.70;99.90;;;;;;5044720;28;20214;-80
2023/05/22 05:23:02;;;;;;;15.52;10.50;;;15.80;99.90;;;;;;5033115;28;20208;-81
2023/05/22 05:25:29;;;;;;;15.40;10.35;;;15.80;99.90;;;;;;5033639;28;20204;-80
2023/05/22 05:27:56;;;;;;;14.48;11.25;;;16.00;99.90;;;;;;5033222;28;20208;-79
2023/05/22 05:30:24;;;;;;;13.20;10.50;;;16.00;99.90;;;;;;5033135;28;20298;-79
2023/05/22 05:32:51;;;;;;;14.32;10.07;;;16.20;99.90;;;;;;5033122;28;20239;-81
2023/05/22 05:35:18;;;;;;;15.10;10.93;;;16.40;99.90;;;;;;5030686;28;20238;-78
2023/05/22 05:37:44;;;;;;;14.40;10.35;;;16.50;99.90;;;;;;5032937;28;20204;-84
2023/05/22 05:40:12;;;;;;;16.35;11.00;;;16.60;99.90;;;;;;5041065;28;20580;-79
2023/05/22 05:42:39;;;;;;;13.70;9.95;;;16.60;99.90;;;;;;5052943;28;20213;-79
2023/05/22 05:45:07;;;;;;;14.30;10.27;;;16.60;99.90;;;;;;5052698;28;20237;-79
2023/05/22 05:47:35;;;;;;;15.98;10.23;;;16.60;99.90;;;;;;5052868;27;20225;-79
2023/05/22 05:50:02;;;;;;;13.82;10.60;;;16.70;99.90;;;;;;5052528;28;20218;-80
2023/05/22 05:52:31;;;;;;;13.50;10.48;;;16.80;99.90;;;;;;5052476;28;20229;-79
2023/05/22 05:54:59;;;;;;;12.27;8.88;;;16.90;99.90;;;;;;5053379;28;20318;-79
2023/05/22 05:57:26;;;;;;;13.43;10.25;;;17.00;99.90;;;;;;5045829;27;20216;-78
2023/05/22 05:59:53;;;;;;;12.80;9.38;;;17.10;99.90;;;;;;5033495;28;20223;-79
2023/05/22 06:02:23;;;;;;;14.23;10.35;;;17.20;99.90;;;;;;5033082;28;20218;-82
2023/05/22 06:04:52;;;;;;;15.63;9.88;;;17.20;99.90;;;;;;5033431;28;20223;-84
2023/05/22 06:07:19;;;;;;;14.25;9.75;;;17.40;99.90;;;;;;5036334;27;20203;-79
2023/05/22 06:09:46;;;;;;;12.43;9.73;;;17.40;99.90;;;;;;5041192;28;20235;-84
2023/05/22 06:12:13;;;;;;;12.30;9.88;;;17.70;99.90;;;;;;5112627;27;20200;-80
2023/05/22 06:14:40;;;;;;;14.98;9.82;;;17.90;99.90;;;;;;5158229;27;20217;-80
2023/05/22 06:17:07;;;;;;;13.25;10.48;;;18.00;99.90;;;;;;5056100;27;20227;-81
2023/05/22 06:19:34;;;;;;;15.23;10.02;;;18.10;99.90;;;;;;5033303;28;20231;-83
2023/05/22 06:22:03;;;;;;;13.13;8.95;;;18.20;99.90;;;;;;5033165;28;20290;-80
2023/05/22 06:24:31;;;;;;;10.55;8.80;;;18.20;99.90;;;;;;5033130;28;20224;-80
2023/05/22 06:26:58;;;;;;;11.27;9.00;;;18.20;99.90;;;;;;5033725;28;20634;-79
2023/05/22 06:29:26;;;;;;;11.15;8.60;;;18.30;99.90;;;;;;5052123;28;20206;-79
2023/05/22 06:31:53;;;;;;;11.32;8.68;;;18.40;99.90;;;;;;5052397;28;20207;-80
2023/05/22 06:34:21;;;;;;;15.75;10.60;;;18.50;99.90;;;;;;5051288;28;20593;-79
2023/05/22 06:36:49;;;;;;;10.20;8.27;;;18.40;99.90;;;;;;5051923;28;20260;-79
2023/05/22 06:39:17;;;;;;;12.75;9.30;;;18.50;99.90;;;;;;5052057;28;20258;-79
2023/05/22 06:41:44;;;;;;;11.98;9.23;;;18.70;99.90;;;;;;5051402;28;20203;-79
2023/05/22 06:44:11;;;;;;;11.80;8.40;;;18.70;99.90;;;;;;5052137;28;20637;-79
2023/05/22 06:46:38;;;;;;;12.82;9.52;;;18.90;99.90;;;;;;5052568;28;20298;-79
2023/05/22 06:49:05;;;;;;;10.35;9.25;;;19.00;99.90;;;;;;5051855;28;20683;-79
2023/05/22 06:51:32;;;;;;;12.63;8.48;;;18.90;99.90;;;;;;5051658;27;20663;-81
2023/05/22 06:53:59;;;;;;;11.52;8.98;;;19.00;99.90;;;;;;5101095;27;20420;-79
2023/05/22 06:56:27;;;;;;;11.02;8.98;;;19.10;99.90;;;;;;5156239;27;20683;-80
2023/05/22 06:58:55;;;;;;;10.75;8.98;;;19.20;99.90;;;;;;5049886;27;20592;-80
2023/05/22 07:01:22;;;;;;;10.88;8.23;;;19.20;99.90;;;;;;5031025;28;20660;-80
2023/05/22 07:03:48;;;;;;;11.90;8.73;;;19.30;99.90;;;;;;5031124;27;20228;-79
2023/05/22 07:06:15;;;;;;;10.10;8.50;;;19.60;99.90;;;;;;5030392;28;20204;-78
2023/05/22 07:08:42;;;;;;;12.52;9.38;;;19.60;99.90;;;;;;5030968;28;20200;-80
2023/05/22 07:11:09;;;;;;;10.48;8.82;;;19.50;99.90;;;;;;5030580;28;20204;-79
2023/05/22 07:13:37;;;;;;;11.52;8.98;;;19.40;99.90;;;;;;5028117;28;20228;-78
2023/05/22 07:16:05;;;;;;;12.15;8.80;;;19.50;99.90;;;;;;5030487;28;20242;-78
2023/05/22 07:18:31;;;;;;;10.05;8.45;;;19.60;99.90;;;;;;5030586;28;20203;-79
2023/05/22 07:20:58;;;;;;;13.48;9.38;;;19.60;99.90;;;;;;5031502;28;20204;-79
2023/05/22 07:23:25;;;;;;;12.00;8.18;;;19.70;99.90;;;;;;5030236;28;20224;-81
2023/05/22 07:25:52;;;;;;;9.45;8.45;;;19.80;99.90;;;;;;5031927;28;20202;-79
2023/05/22 07:28:18;;;;;;;10.82;8.70;;;19.90;99.90;;;;;;5032454;28;20210;-80
2023/05/22 07:30:47;;;;;;;13.43;8.85;;;20.20;99.90;;;;;;5032271;28;20210;-80
2023/05/22 07:33:14;;;;;;;11.10;8.30;;;20.00;99.90;;;;;;5032761;28;20232;-81
2023/05/22 07:35:40;;;;;;;12.48;9.73;;;19.90;99.90;;;;;;5031496;28;20203;-80
2023/05/22 07:38:07;;;;;;;10.73;8.85;;;20.00;99.90;;;;;;5031809;28;20647;-81
2023/05/22 07:40:34;;;;;;;11.63;8.85;;;20.20;99.90;;;;;;5031456;28;20303;-81
2023/05/22 07:43:04;;;;;;;10.73;8.63;;;20.30;99.90;;;;;;5031169;28;20200;-81
2023/05/22 07:45:31;;;;;;;10.93;8.80;;;20.40;99.90;;;;;;5037486;27;20213;-80
2023/05/22 07:48:00;;;;;;;12.50;9.68;;;20.30;99.90;;;;;;5060878;27;20204;-81
2023/05/22 07:50:29;;;;;;;12.85;9.43;;;20.30;99.90;;;;;;5122766;27;20659;-81
2023/05/22 07:52:56;;;;;;;11.02;8.52;;;20.30;99.90;;;;;;5050965;28;20285;-81
2023/05/22 07:55:22;;;;;;;9.68;8.65;;;20.40;99.90;;;;;;5051167;28;20573;-80
2023/05/22 07:57:50;;;;;;;10.77;8.45;;;20.50;99.90;;;;;;5051397;28;20233;-80
2023/05/22 08:00:18;;;;;;;12.50;9.27;;;20.70;99.90;;;;;;5076740;27;20260;-80
2023/05/22 08:02:45;;;;;;;10.93;8.95;;;20.80;99.90;;;;;;5066055;27;20203;-81
2023/05/22 08:05:13;;;;;;;12.65;8.90;;;21.10;99.90;;;;;;5051023;28;20239;-80
2023/05/22 08:07:40;;;;;;;10.18;8.50;;;21.10;99.90;;;;;;5051303;28;20199;-80
2023/05/22 08:10:13;;;;;;;12.00;8.30;;;21.00;99.90;;;;;;5051429;28;20203;-82
2023/05/22 08:12:40;;;;;;;10.15;8.57;;;21.00;99.90;;;;;;5051084;28;20187;-80
2023/05/22 08:15:08;;;;;;;10.90;8.70;;;20.90;99.90;;;;;;5050982;28;20227;-79
2023/05/22 08:17:34;;;;;;;11.35;8.77;;;20.80;99.90;;;;;;5051020;28;20222;-80
2023/05/22 08:20:05;;;;;;;9.70;8.57;;;20.70;99.90;;;;;;5049566;28;20203;-78
2023/05/22 08:22:34;;;;;;;11.70;9.07;;;20.90;99.90;;;;;;5059930;28;20192;-78
2023/05/22 08:25:00;;;;;;;11.18;8.25;;;21.10;99.90;;;;;;5058645;28;20256;-79
2023/05/22 08:27:27;;;;;;;16.85;9.63;;;21.20;99.90;;;;;;5059128;28;20198;-79
2023/05/22 08:29:55;;;;;;;14.13;8.90;;;21.30;99.90;;;;;;5058282;28;20632;-79
2023/05/22 08:32:21;;;;;;;10.85;8.73;;;21.40;99.90;;;;;;5055904;28;20424;-79
2023/05/22 08:34:49;;;;;;;11.38;8.55;;;21.40;99.90;;;;;;5058137;28;20219;-78
2023/05/22 08:37:16;;;;;;;10.05;8.68;;;21.40;99.90;;;;;;5043243;27;20763;-78
2023/05/22 08:39:44;;;;;;;11.18;9.00;;;21.40;99.90;;;;;;5053687;28;20274;-79
2023/05/22 08:42:11;;;;;;;9.32;8.40;;;21.20;99.90;;;;;;5058187;28;20206;-79
2023/05/22 08:44:38;;;;;;;9.23;8.10;;;21.40;99.90;;;;;;5057675;27;20291;-78
2023/05/22 08:47:08;;;;;;;9.43;8.50;;;21.40;99.90;;;;;;5057421;28;20553;-78
2023/05/22 08:49:35;;;;;;;12.77;8.88;;;21.60;99.90;;;;;;5037576;28;20295;-79
2023/05/22 08:52:09;;;;;;;10.25;8.65;;;21.60;99.90;;;;;;5056173;27;20203;-79
2023/05/22 08:54:40;;;;;;;12.13;9.30;;;21.50;99.90;;;;;;5058029;28;20313;-78
2023/05/22 08:57:09;;;;;;;10.43;9.02;;;21.40;99.90;;;;;;5060093;28;20483;-78
2023/05/22 08:59:36;;;;;;;10.15;8.07;;;21.50;99.90;;;;;;5060304;28;20226;-79
2023/05/22 09:02:05;;;;;;;10.70;9.05;;;21.70;99.90;;;;;;5061386;28;20635;-79
2023/05/22 09:04:42;;;;;;;9.40;8.40;;;21.80;99.90;;;;;;5062888;28;20228;-79
2023/05/22 09:07:09;;;;;;;9.50;8.50;;;22.10;99.90;;;;;;5044478;28;20204;-78
2023/05/22 09:09:37;;;;;;;10.27;8.05;;;22.40;99.90;;;;;;5040658;28;20203;-79
2023/05/22 09:12:07;;;;;;;12.60;8.55;;;22.70;99.90;;;;;;5043220;28;20235;-78
2023/05/22 09:14:40;;;;;;;9.73;8.55;;;22.80;99.90;;;;;;5042155;28;20696;-79
2023/05/22 09:17:07;;;;;;;11.43;8.15;;;23.30;99.90;;;;;;5044048;28;20647;-79
2023/05/22 09:19:34;;;;;;;11.48;8.05;;;23.50;99.90;;;;;;5042816;28;20227;-79
2023/05/22 09:22:02;;;;;;;8.88;7.97;;;23.40;99.90;;;;;;5043104;28;20267;-79
2023/05/22 09:24:29;;;;;;;11.10;8.45;;;23.20;99.90;;;;;;5043219;28;20220;-79
2023/05/22 09:26:56;;;;;;;9.20;8.25;;;23.20;99.90;;;;;;5041866;28;20210;-79
2023/05/22 09:29:23;;;;;;;13.57;8.95;;;23.20;99.90;;;;;;5041852;28;20227;-79
2023/05/22 09:31:51;;;;;;;11.73;8.10;;;23.60;99.90;;;;;;5040776;28;20207;-79
2023/05/22 09:34:18;;;;;;;14.15;8.95;;;23.90;99.90;;;;;;5040201;28;20224;-79
2023/05/22 09:36:45;;;;;;;10.68;9.57;;;24.00;99.90;;;;;;5041849;28;20231;-79
2023/05/22 09:39:11;;;;;;;13.45;8.68;;;24.00;99.90;;;;;;5040941;28;20206;-79
2023/05/22 09:41:39;;;;;;;9.57;8.45;;;23.70;99.90;;;;;;5041380;28;20540;-79
2023/05/22 09:44:13;;;;;;;13.15;8.70;;;23.60;99.90;;;;;;5041300;28;20234;-79
2023/05/22 09:46:41;;;;;;;10.13;8.35;;;23.40;99.90;;;;;;5040909;28;20590;-79
2023/05/22 09:49:09;;;;;;;9.45;8.00;;;23.60;99.90;;;;;;5043364;28;20204;-79
2023/05/22 09:51:39;;;;;;;9.98;8.93;;;23.90;99.90;;;;;;5041499;28;20722;-79
2023/05/22 09:54:09;;;;;;;11.88;8.35;;;23.90;99.90;;;;;;5044267;28;20219;-79
2023/05/22 09:56:38;;;;;;;10.85;8.60;;;24.30;99.90;;;;;;5044161;28;20650;-79
2023/05/22 09:59:07;;;;;;;9.52;8.20;;;24.70;99.90;;;;;;5042570;28;20204;-79
2023/05/22 10:01:36;;;;;;;9.95;8.60;;;24.60;99.90;;;;;;5043623;28;20216;-78
2023/05/22 10:04:04;;;;;;;11.05;8.27;;;24.40;99.90;;;;;;5042913;28;20248;-79
2023/05/22 10:06:35;;;;;;;10.30;7.95;;;24.10;99.90;;;;;;5042730;28;20203;-79
2023/05/22 10:09:05;;;;;;;9.63;8.38;;;23.90;99.90;;;;;;5043076;28;20235;-79
2023/05/22 10:11:32;;;;;;;12.18;8.80;;;23.80;99.90;;;;;;5044248;28;20520;-79
2023/05/22 10:14:00;;;;;;;11.23;8.00;;;23.90;99.90;;;;;;5044065;28;20683;-79
2023/05/22 10:16:29;;;;;;;9.65;8.63;;;24.30;99.90;;;;;;5042350;28;20196;-79
2023/05/22 10:18:56;;;;;;;9.15;7.72;;;24.50;99.90;;;;;;5042933;28;20420;-79
2023/05/22 10:21:24;;;;;;;8.57;7.43;;;24.60;99.90;;;;;;5042611;28;20270;-79
2023/05/22 10:23:53;;;;;;;9.20;7.78;;;24.50;99.90;;;;;;5042114;28;20231;-79
2023/05/22 10:26:20;;;;;;;8.63;7.80;;;24.60;99.90;;;;;;5042522;28;20238;-79
2023/05/22 10:28:52;;;;;;;10.45;8.48;;;24.80;99.90;;;;;;5040697;28;20235;-79
2023/05/22 10:31:27;;;;;;;8.90;8.00;;;24.90;1.00;;;;;;5041141;28;20218;-79
2023/05/22 10:33:59;;;;;;;9.45;7.75;;;25.30;99.90;;;;;;5041169;28;20229;-79
2023/05/22 10:36:37;;;;;;;10.23;8.38;;;25.30;99.90;;;;;;5045813;27;20255;-79
2023/05/22 10:39:23;;;;;;;11.77;7.53;;;25.30;99.90;;;;;;5053301;27;20206;-79
2023/05/22 10:41:50;;;;;;;9.80;8.10;;;25.70;99.90;;;;;;5058415;28;20195;-78
2023/05/22 10:44:18;;;;;;;10.13;8.00;;;26.30;1.00;;;;;;5086407;27;20294;-78
2023/05/22 10:46:48;;;;;;;11.43;8.35;;;26.50;1.00;;;;;;5145888;27;20276;-79
2023/05/22 10:49:21;;;;;;;9.98;7.88;;;27.00;1.00;;;;;;5059367;28;20187;-78
2023/05/22 10:51:48;;;;;;;9.95;7.72;;;27.40;1.00;;;;;;5058953;28;20564;-78
2023/05/22 10:54:16;;;;;;;10.88;8.13;;;27.20;1.00;;;;;;5057907;28;20698;-78
2023/05/22 10:56:44;;;;;;;9.07;7.95;;;27.30;1.00;;;;;;5055894;28;20238;-78
2023/05/22 10:59:11;;;;;;;9.93;8.27;;;27.30;1.00;;;;;;5038981;28;20257;-78
2023/05/22 11:01:38;;;;;;;12.13;8.02;;;26.90;99.90;;;;;;5039344;28;20279;-78
2023/05/22 11:04:11;;;;;;;10.05;7.60;;;26.80;26.10;;;;;;5039104;27;20302;-78
2023/05/22 11:06:40;;;;;;;9.80;8.00;;;26.60;99.90;;;;;;5038865;28;20213;-77
2023/05/22 11:09:28;;;;;;;8.23;7.32;;;27.00;1.00;;;;;;5039242;28;20718;-78
2023/05/22 11:12:19;;;;;;;11.38;8.05;;;27.40;1.00;;;;;;5055679;28;20588;-78
2023/05/22 11:14:59;;;;;;;12.70;9.07;;;27.00;1.00;;;;;;5058412;28;20267;-77
2023/05/22 11:17:28;;;;;;;12.13;8.68;;;26.30;1.00;;;;;;5057109;28;20238;-77
2023/05/22 11:20:03;;;;;;;9.23;8.27;;;26.10;77.00;;;;;;5054949;28;20217;-78
2023/05/22 11:22:35;;;;;;;12.35;8.35;;;26.10;1.00;;;;;;5059157;27;20735;-78
2023/05/22 11:25:07;;;;;;;11.38;8.48;;;26.50;1.00;;;;;;5058651;28;20227;-78
2023/05/22 11:27:35;;;;;;;9.68;7.88;;;26.90;1.00;;;;;;5058041;28;20228;-78
2023/05/22 11:30:03;;;;;;;8.98;8.07;;;26.90;1.00;;;;;;5058517;28;20199;-78
2023/05/22 11:32:30;;;;;;;13.20;8.60;;;26.20;1.00;;;;;;5057297;28;20207;-78
2023/05/22 11:34:57;;;;;;;10.02;8.32;;;26.60;1.00;;;;;;5057929;28;20227;-79
2023/05/22 11:37:24;;;;;;;8.63;7.65;;;26.90;99.90;;;;;;5076762;27;20215;-76
2023/05/22 11:39:51;;;;;;;8.65;7.78;;;26.40;1.00;;;;;;5044566;27;20256;-77
2023/05/22 11:42:20;;;;;;;11.10;8.13;;;26.60;99.90;;;;;;5156346;27;20203;-77
2023/05/22 11:44:47;;;;;;;10.05;8.63;;;26.80;1.00;;;;;;5158329;27;20710;-77
2023/05/22 11:47:14;;;;;;;10.65;8.45;;;26.80;1.00;;;;;;5054495;27;20200;-77
2023/05/22 11:49:41;;;;;;;11.15;8.07;;;26.40;1.00;;;;;;5036008;28;20286;-78
2023/05/22 11:52:08;;;;;;;11.23;7.75;;;26.50;86.20;;;;;;5053433;28;20217;-78
2023/05/22 11:54:35;;;;;;;9.88;8.00;;;26.90;1.00;;;;;;5057628;28;20247;-78
2023/05/22 11:57:04;;;;;;;11.15;7.90;;;26.70;99.90;;;;;;5055926;28;20244;-77
2023/05/22 11:59:32;;;;;;;9.82;7.93;;;26.40;1.00;;;;;;5036728;28;20215;-78
2023/05/22 12:01:59;;;;;;;11.20;7.60;;;26.30;1.00;;;;;;5041559;28;20206;-79
2023/05/22 12:04:25;;;;;;;10.57;7.93;;;26.50;1.00;;;;;;5036780;27;20256;-78
2023/05/22 12:06:53;;;;;;;9.98;7.97;;;26.60;99.90;;;;;;5132848;27;20211;-78
2023/05/22 12:09:22;;;;;;;8.95;7.43;;;26.30;99.90;;;;;;5053628;28;20252;-78
2023/05/22 12:11:49;;;;;;;8.82;7.93;;;26.20;99.90;;;;;;5034097;28;20204;-77
2023/05/22 12:14:15;;;;;;;11.45;7.63;;;26.40;1.00;;;;;;5036150;28;20220;-79
2023/05/22 12:16:44;;;;;;;7.95;7.18;;;26.90;1.00;;;;;;5044037;28;20202;-79
2023/05/22 12:19:12;;;;;;;9.50;7.60;;;26.80;1.00;;;;;;5052493;28;20247;-79
2023/05/22 12:21:40;;;;;;;11.77;7.75;;;26.70;32.50;;;;;;5037318;28;20295;-79
2023/05/22 12:24:08;;;;;;;9.20;7.65;;;27.00;99.90;;;;;;5038514;28;20699;-78
2023/05/22 12:26:36;;;;;;;10.07;7.30;;;27.40;99.90;;;;;;5058148;27;20203;-78
2023/05/22 12:29:04;;;;;;;8.90;7.13;;;27.30;99.90;;;;;;5052302;28;20244;-78
2023/05/22 12:31:39;;;;;;;7.25;6.55;;;28.00;1.00;;;;;;5037377;28;20207;-79
2023/05/22 12:34:08;;;;;;;10.45;7.68;;;28.40;1.00;;;;;;5044279;28;20305;-79
2023/05/22 12:36:35;;;;;;;10.82;7.57;;;27.70;1.00;;;;;;5053413;28;20218;-78
2023/05/22 12:39:09;;;;;;;9.02;7.25;;;27.40;1.00;;;;;;5041002;28;20217;-78
2023/05/22 12:41:36;;;;;;;10.00;7.72;;;27.50;1.00;;;;;;5052655;27;20218;-78